createdAt,value
2019-04-22T00:02:57.534Z,12.70
2019-04-22T00:08:19.724Z,12.64
2019-04-22T00:13:37.526Z,12.40
2019-04-22T00:18:52.996Z,12.24
2019-04-22T00:23:39.232Z,12.22
2019-04-22T00:28:43.915Z,12.21
2019-04-22T00:33:48.098Z,12.02
2019-04-22T00:38:58.711Z,11.96
2019-04-22T00:44:02.593Z,11.97
2019-04-22T00:49:52.740Z,11.83
2019-04-22T00:54:10.303Z,11.93
2019-04-22T00:59:12.917Z,11.73
2019-04-22T01:04:31.565Z,11.68
2019-04-22T01:09:24.503Z,11.62
2019-04-22T01:14:29.727Z,11.54
2019-04-22T01:19:38.734Z,11.52
2019-04-22T01:24:38.836Z,11.42
2019-04-22T01:29:34.961Z,11.35
2019-04-22T01:34:40.447Z,11.31
2019-04-22T01:40:06.574Z,11.28
2019-04-22T01:45:06.990Z,11.19
2019-04-22T01:50:12.281Z,11.16
2019-04-22T01:55:18.930Z,10.91
2019-04-22T02:00:14.136Z,10.95
2019-04-22T02:05:24.546Z,10.73
2019-04-22T02:10:40.341Z,10.74
2019-04-22T02:15:43.730Z,10.64
2019-04-22T02:20:43.084Z,10.46
2019-04-22T02:25:59.315Z,10.43
2019-04-22T02:41:26.214Z,10.14
2019-04-22T02:51:23.022Z,10.03
2019-04-22T02:56:39.928Z,9.81
2019-04-22T03:11:50.025Z,9.42
2019-04-22T03:21:54.604Z,9.10
2019-04-22T03:27:00.853Z,9.19
2019-04-22T03:32:32.160Z,9.23
2019-04-22T03:42:11.626Z,9.08
2019-04-22T03:47:29.111Z,9.14
2019-04-22T03:52:24.698Z,9.11
2019-04-22T04:02:52.348Z,8.98
2019-04-22T04:17:56.983Z,8.91
2019-04-22T04:23:07.999Z,8.69
2019-04-22T04:33:21.174Z,8.94
2019-04-22T04:38:11.678Z,8.79
2019-04-22T04:48:34.435Z,8.57
2019-04-22T04:53:33.581Z,8.54
2019-04-22T05:03:52.301Z,8.94
2019-04-22T05:19:00.038Z,8.97
2019-04-22T05:24:02.442Z,9.07
2019-04-22T05:29:05.516Z,9.28
2019-04-22T05:34:08.544Z,9.66
2019-04-22T05:39:14.223Z,13.88
2019-04-22T05:44:36.146Z,16.52
2019-04-22T05:49:23.875Z,17.67
2019-04-22T05:54:35.179Z,18.64
2019-04-22T05:59:39.722Z,18.31
2019-04-22T06:04:48.426Z,20.51
2019-04-22T06:09:43.491Z,20.46
2019-04-22T06:14:54.111Z,19.45
2019-04-22T06:19:57.520Z,20.93
2019-04-22T06:25:27.600Z,21.00
2019-04-22T06:30:10.767Z,23.07
2019-04-22T06:35:23.679Z,22.42
2019-04-22T06:40:27.489Z,23.29
2019-04-22T06:45:32.367Z,22.23
2019-04-22T06:50:40.561Z,23.21
2019-04-22T06:55:41.271Z,24.33
2019-04-22T07:00:43.309Z,23.51
2019-04-22T07:05:47.566Z,23.42
2019-04-22T07:10:50.415Z,23.35
2019-04-22T07:21:06.132Z,23.20
2019-04-22T07:26:08.215Z,22.35
2019-04-22T07:31:17.456Z,18.19
2019-04-22T07:36:38.188Z,16.17
2019-04-22T07:41:28.794Z,16.96
2019-04-22T07:46:33.567Z,21.68
2019-04-22T07:51:41.102Z,19.08
2019-04-22T07:56:48.738Z,22.62
2019-04-22T08:02:04.799Z,26.88
2019-04-22T08:06:58.938Z,22.85
2019-04-22T08:11:59.520Z,19.88
2019-04-22T08:17:14.172Z,26.80
2019-04-22T08:22:12.489Z,21.87
2019-04-22T08:27:17.366Z,17.58
2019-04-22T08:32:26.348Z,19.95
2019-04-22T08:42:42.942Z,21.60
2019-04-22T08:47:36.156Z,17.83
2019-04-22T08:52:40.656Z,24.75
2019-04-22T09:02:54.016Z,18.99
2019-04-22T09:08:01.460Z,22.42
2019-04-22T09:18:16.059Z,20.07
2019-04-22T09:23:14.803Z,17.20
2019-04-22T09:28:24.556Z,18.54
2019-04-22T09:33:27.255Z,17.44
2019-04-22T09:43:40.754Z,17.03
2019-04-22T09:48:48.825Z,19.00
2019-04-22T09:53:54.800Z,18.17
2019-04-22T09:58:58.881Z,18.64
2019-04-22T10:14:05.556Z,16.91
2019-04-22T10:19:12.044Z,16.86
2019-04-22T10:24:18.664Z,16.69
2019-04-22T10:29:32.422Z,18.19
2019-04-22T10:34:16.766Z,17.03
2019-04-22T10:39:10.576Z,16.42
2019-04-22T10:44:15.317Z,16.63
2019-04-22T10:49:20.310Z,16.26
2019-04-22T10:54:25.260Z,16.28
2019-04-22T10:59:29.019Z,15.82
2019-04-22T11:04:32.626Z,16.58
2019-04-22T11:09:47.656Z,15.98
2019-04-22T11:14:43.286Z,16.39
2019-04-22T11:19:47.895Z,15.08
2019-04-22T11:24:52.897Z,16.45
2019-04-22T11:29:57.396Z,15.25
2019-04-22T11:35:01.710Z,15.67
2019-04-22T11:40:18.958Z,15.71
2019-04-22T11:45:13.606Z,15.82
2019-04-22T11:50:17.737Z,15.31
2019-04-22T11:55:22.529Z,16.10
2019-04-22T12:00:27.919Z,16.21
2019-04-22T12:05:32.226Z,16.89
2019-04-22T12:10:44.122Z,15.89
2019-04-22T12:15:42.713Z,15.47
2019-04-22T12:20:47.482Z,15.89
2019-04-22T12:25:58.037Z,16.22
2019-04-22T12:30:57.388Z,15.96
2019-04-22T12:36:02.358Z,15.84
2019-04-22T12:41:09.896Z,16.38
2019-04-22T12:46:12.158Z,16.50
2019-04-22T12:51:15.776Z,16.78
2019-04-22T12:56:19.687Z,22.93
2019-04-22T13:01:24.680Z,23.92
2019-04-22T13:06:30.313Z,24.01
2019-04-22T13:11:36.408Z,23.06
2019-04-22T13:16:40.727Z,23.21
2019-04-22T13:21:44.843Z,23.04
2019-04-22T13:26:48.836Z,23.13
2019-04-22T13:31:53.132Z,23.44
2019-04-22T13:36:56.949Z,23.45
2019-04-22T13:42:05.630Z,23.50
2019-04-22T13:47:24.072Z,23.56
2019-04-22T13:57:32.553Z,23.62
2019-04-22T14:02:26.732Z,23.62
2019-04-22T14:07:30.714Z,23.71
2019-04-22T14:12:34.943Z,23.68
2019-04-22T14:17:39.061Z,23.37
2019-04-22T14:22:44.300Z,23.56
2019-04-22T14:27:56.562Z,23.64
2019-04-22T14:32:54.095Z,23.66
2019-04-22T14:37:58.493Z,23.71
2019-04-22T14:43:25.206Z,23.74
2019-04-22T14:48:35.688Z,23.74
2019-04-22T14:53:35.269Z,23.79
2019-04-22T14:58:19.287Z,23.78
2019-04-22T15:03:23.839Z,23.74
2019-04-22T15:08:28.864Z,23.70
2019-04-22T15:13:33.558Z,23.69
2019-04-22T15:18:55.672Z,23.72
2019-04-22T15:24:02.411Z,23.71
2019-04-22T15:29:07.201Z,23.70
2019-04-22T15:34:12.303Z,23.71
2019-04-22T15:39:17.265Z,23.73
2019-04-22T15:44:21.959Z,23.62
2019-04-22T15:49:25.843Z,23.62
2019-04-22T15:54:29.855Z,23.69
2019-04-22T15:59:49.346Z,23.59
2019-04-22T16:04:38.940Z,23.69
2019-04-22T16:09:43.505Z,23.77
2019-04-22T16:14:53.040Z,23.82
2019-04-22T16:19:53.299Z,23.80
2019-04-22T16:25:15.396Z,23.80
2019-04-22T16:30:19.276Z,23.82
2019-04-22T16:35:22.870Z,23.78
2019-04-22T16:40:26.972Z,23.67
2019-04-22T16:45:31.636Z,23.57
2019-04-22T16:50:38.275Z,23.82
2019-04-22T16:55:41.035Z,24.21
2019-04-22T17:00:46.938Z,24.65
2019-04-22T17:05:52.177Z,24.87
2019-04-22T17:10:57.686Z,24.88
2019-04-22T17:16:02.320Z,24.92
2019-04-22T17:21:08.461Z,24.94
2019-04-22T17:26:12.567Z,24.89
2019-04-22T17:31:16.545Z,24.75
2019-04-22T17:36:20.541Z,24.72
2019-04-22T17:41:38.843Z,24.56
2019-04-22T17:46:48.652Z,24.28
2019-04-22T17:57:24.001Z,24.23
2019-04-22T18:02:25.196Z,24.13
2019-04-22T18:07:44.483Z,24.06
2019-04-22T18:12:45.576Z,24.01
2019-04-22T18:17:45.009Z,23.99
2019-04-22T18:22:41.750Z,23.88
2019-04-22T18:28:03.845Z,23.85
2019-04-22T18:32:55.629Z,23.83
2019-04-22T18:38:15.427Z,23.78
2019-04-22T18:43:11.912Z,23.70
2019-04-22T18:48:08.740Z,23.67
2019-04-22T18:53:30.091Z,23.56
2019-04-22T18:58:24.634Z,23.53
2019-04-22T19:03:22.667Z,23.59
2019-04-22T19:08:43.315Z,23.42
2019-04-22T19:14:02.302Z,23.34
2019-04-22T19:19:18.427Z,23.29
2019-04-22T19:24:03.143Z,23.21
2019-04-22T19:29:05.611Z,23.17
2019-04-22T19:34:12.630Z,23.08
2019-04-22T19:39:12.127Z,23.03
2019-04-22T19:44:29.189Z,22.99
2019-04-22T19:49:38.326Z,23.00
2019-04-22T19:54:38.980Z,23.01
2019-04-22T19:59:42.578Z,22.85
2019-04-22T20:05:05.912Z,23.04
2019-04-22T20:10:05.302Z,23.46
2019-04-22T20:15:10.046Z,24.08
2019-04-22T20:20:23.137Z,24.67
2019-04-22T20:25:27.237Z,24.93
2019-04-22T20:30:34.553Z,24.94
2019-04-22T20:35:43.490Z,24.99
2019-04-22T20:40:42.660Z,24.82
2019-04-22T20:45:51.147Z,24.54
2019-04-22T20:50:59.297Z,24.54
2019-04-22T20:56:04.317Z,24.52
2019-04-22T21:01:05.054Z,24.42
2019-04-22T21:06:14.859Z,24.34
2019-04-22T21:11:24.850Z,24.20
2019-04-22T21:16:32.845Z,23.93
2019-04-22T21:21:37.999Z,23.79
2019-04-22T21:26:43.767Z,23.55
2019-04-22T21:31:51.161Z,23.39
2019-04-22T21:37:06.211Z,23.26
2019-04-22T21:41:58.716Z,23.14
2019-04-22T21:47:14.926Z,23.01
2019-04-22T21:52:16.941Z,22.92
2019-04-22T21:57:24.135Z,22.86
2019-04-22T22:07:17.225Z,22.72
2019-04-22T22:12:46.005Z,22.62
2019-04-22T22:17:42.899Z,22.50
2019-04-22T22:22:52.198Z,22.43
2019-04-22T22:27:47.658Z,22.36
2019-04-22T22:33:04.117Z,22.33
2019-04-22T22:38:05.465Z,22.30
2019-04-22T22:42:52.977Z,22.23
2019-04-22T22:48:24.091Z,22.18
2019-04-22T22:53:32.694Z,22.26
2019-04-22T22:58:27.514Z,22.17
2019-04-22T23:03:46.006Z,22.15
2019-04-22T23:08:38.190Z,22.11
2019-04-22T23:13:44.335Z,22.02
2019-04-22T23:18:28.018Z,22.20
2019-04-22T23:23:51.159Z,22.60
2019-04-22T23:28:50.932Z,23.15
2019-04-22T23:34:01.479Z,23.80
2019-04-22T23:39:10.848Z,24.17
2019-04-22T23:49:12.874Z,24.29
2019-04-22T23:54:23.956Z,24.16
2019-04-22T23:59:41.364Z,23.98
